Aviation Digital Data Service (ADDS)

Output produced by METARs form (1950 UTC 14 August 2018)
found at http://www.aviationweather.gov/adds/metars/
 
KLBE 141847Z 21006KT 10SM SCT050 BKN150 21/19 A3002
KLBE 141750Z 22005KT 8SM FEW020 BKN050 20/20 A3003
KLBE 141650Z 27004KT 2SM RA SCT017 OVC034 20/19 A3004
KLBE 141550Z 26005KT 8SM BKN009 OVC020 20/19 A3004
KLBE 141450Z 23008KT 8SM BKN009 OVC015 19/19 A3004
KLBE 141350Z 24009KT 8SM OVC007 19/19 A3003
KLBE 141250Z 24009KT 10SM FEW005 OVC020 17/17 A3003
KLBE 141150Z 23009KT 10SM SCT012 OVC035 17/17 A3002
KLBE 141050Z 24005KT 10SM SCT038 16/17 A3000
KLBE 140955Z AUTO 20004KT 10SM BKN033 BKN055 17/17 A3000 RMK AO2
KLBE 140935Z AUTO 20005KT 10SM BKN031 OVC038 17/17 A3000 RMK AO2
KLBE 140915Z AUTO 22003KT 10SM FEW010 FEW026 BKN032 17/17 A3000 RMK AO2
KLBE 140855Z AUTO 19003KT 10SM FEW011 BKN034 BKN065 17/17 A3000 RMK AO2
KLBE 140835Z AUTO 22004KT 10SM SCT011 BKN060 OVC110 17/17 A3000 RMK AO2
KLBE 140815Z AUTO 20004KT 10SM BKN010 OVC100 17/17 A3000 RMK AO2
KLBE 140755Z AUTO 19004KT 10SM SCT010 BKN028 OVC095 17/17 A3001 RMK AO2
KLBE 140735Z AUTO 19005KT 10SM BKN028 OVC090 17/17 A3001 RMK AO2
KLBE 140715Z AUTO 00000KT 10SM FEW007 BKN028 OVC085 17/17 A3002 RMK AO2
KLBE 140655Z AUTO 21004KT 10SM SCT008 BKN025 OVC046 17/17 A3002 RMK AO2
KLBE 140635Z AUTO 20004KT 10SM BKN008 OVC024 17/17 A3003 RMK AO2
KLBE 140615Z AUTO 20005KT 10SM OVC007 17/17 A3003 RMK AO2
KLBE 140555Z AUTO 21005KT 9SM BKN007 BKN100 17/17 A3003 RMK AO2
KLBE 140535Z AUTO 18004KT 9SM FEW008 BKN100 17/17 A3003 RMK AO2
KLBE 140515Z AUTO 20006KT 9SM BKN007 BKN028 OVC110 17/17 A3003 RMK AO2
KLBE 140455Z AUTO 20006KT 8SM BKN007 OVC024 17/17 A3004 RMK AO2
KLBE 140435Z AUTO 19006KT 9SM BKN007 OVC090 17/17 A3004 RMK AO2
KLBE 140415Z AUTO 20006KT 9SM BKN006 BKN009 OVC090 17/17 A3004 RMK AO2
KLBE 140355Z AUTO 19007KT 7SM SCT005 BKN008 OVC100 17/18 A3004 RMK AO2
KLBE 140335Z AUTO 20005KT 7SM BKN100 17/17 A3004 RMK AO2
KLBE 140315Z AUTO 20004KT 9SM FEW110 17/17 A3003 RMK AO2
KLBE 140255Z AUTO 21004KT 10SM BKN110 17/17 A3003 RMK AO2
KLBE 140235Z AUTO 20005KT 10SM BKN110 17/17 A3003 RMK AO2
KLBE 140215Z AUTO 00000KT 10SM BKN100 17/17 A3003 RMK AO2
KLBE 140150Z 00000KT 10SM SKC 18/18 A3003
KLBE 140050Z 26005KT 10SM SKC 18/18 A3002
KLBE 132350Z 23006KT 10SM SCT035 19/19 A3002
KLBE 132250Z 24008KT 8SM BKN025 20/19 A3003
KLBE 132150Z 00000KT 8SM BKN030 20/17 A3004
KLBE 132050Z 00000KT 8SM SCT030 BKN150 21/18 A3000